Richardson's Hourly Summary for Monday, March 13, 2017
Hour Temp
(f)
RH
(%)
Solar Rad.
(MJ/m2)
Rainfall
(in)
Wind
(mph)
3/13/2017 12:00 AM 48 74 0 0 3.09
3/13/2017 1:00 AM 48 74 0 0 3.93
3/13/2017 2:00 AM 48 76 0 0 3.92
3/13/2017 3:00 AM 48 78 0 0 4.27
3/13/2017 4:00 AM 49 77 0 0 3.42
3/13/2017 5:00 AM 48 79 0 0 1.44
3/13/2017 6:00 AM 48 86 0 0 2.05
3/13/2017 7:00 AM 48 89 0 0 1.83
3/13/2017 8:00 AM 48 85 0 0 1.71
3/13/2017 9:00 AM 48 83 0.07 0 1.13
3/13/2017 10:00 AM 49 81 0.2 0 1.36
3/13/2017 11:00 AM 52 71 1.06 0 4.71
3/13/2017 12:00 PM 52 67 1.2 0 7.22
3/13/2017 1:00 PM 54 61 1.23 0 7.56
3/13/2017 2:00 PM 57 48 3.01 0 6.27
3/13/2017 3:00 PM 61 40 2.83 0 5.84
3/13/2017 4:00 PM 62 32 2.56 0 5.78
3/13/2017 5:00 PM 62 28 2.01 0 5.99
3/13/2017 6:00 PM 61 28 1.12 0 6.32
3/13/2017 7:00 PM 58 27 0.53 0 6.59
3/13/2017 8:00 PM 53 27 0.03 0 6.62
3/13/2017 9:00 PM 51 29 0 0 5.25
3/13/2017 10:00 PM 49 31 0 0 6.51
3/13/2017 11:00 PM 47 35 0 0 5.86
Data Summary 52 58 15.85 0.00 4.53